createdAt,value
2022-09-22T00:01:21.826Z,13.15
2022-09-22T00:03:52.291Z,13.23
2022-09-22T00:06:22.278Z,13.19
2022-09-22T00:08:52.414Z,13.05
2022-09-22T00:11:28.866Z,12.98
2022-09-22T00:14:01.742Z,13.10
2022-09-22T00:16:37.423Z,12.96
2022-09-22T00:19:06.907Z,13.05
2022-09-22T00:21:34.339Z,13.08
2022-09-22T00:24:03.034Z,13.00
2022-09-22T00:26:31.253Z,13.17
2022-09-22T00:28:58.613Z,13.11
2022-09-22T00:31:26.027Z,13.01
2022-09-22T00:33:54.518Z,13.08
2022-09-22T00:36:25.609Z,13.06
2022-09-22T00:38:54.042Z,13.08
2022-09-22T00:41:27.623Z,13.04
2022-09-22T00:44:29.914Z,13.00
2022-09-22T00:47:08.506Z,13.14
2022-09-22T00:49:44.790Z,13.05
2022-09-22T00:52:15.942Z,13.00
2022-09-22T00:54:43.344Z,12.96
2022-09-22T00:57:14.519Z,12.85
2022-09-22T00:59:44.103Z,12.93
2022-09-22T01:02:11.513Z,12.88
2022-09-22T01:04:39.290Z,12.78
2022-09-22T01:07:07.168Z,12.65
2022-09-22T01:09:34.803Z,12.69
2022-09-22T01:12:03.012Z,12.64
2022-09-22T01:14:38.907Z,12.70
2022-09-22T01:17:23.125Z,12.60
2022-09-22T01:20:03.984Z,12.68
2022-09-22T01:23:08.593Z,12.61
2022-09-22T01:26:00.426Z,12.73
2022-09-22T01:28:39.650Z,12.74
2022-09-22T01:31:19.375Z,12.78
2022-09-22T01:33:50.834Z,12.65
2022-09-22T01:36:25.833Z,12.66
2022-09-22T01:39:04.926Z,12.56
2022-09-22T01:41:58.257Z,12.55
2022-09-22T01:44:32.895Z,12.65
2022-09-22T01:47:10.928Z,12.57
2022-09-22T01:49:44.346Z,12.44
2022-09-22T01:52:16.710Z,12.44
2022-09-22T01:54:47.280Z,12.43
2022-09-22T01:57:21.891Z,12.46
2022-09-22T01:59:55.998Z,12.46
2022-09-22T02:02:39.619Z,12.42
2022-09-22T02:05:12.398Z,12.42
2022-09-22T02:07:40.249Z,12.39
2022-09-22T02:10:10.467Z,12.43
2022-09-22T02:12:38.195Z,12.39
2022-09-22T02:15:26.886Z,12.35
2022-09-22T02:17:57.130Z,12.39
2022-09-22T02:20:25.772Z,12.49
2022-09-22T02:22:54.148Z,12.44
2022-09-22T02:25:23.732Z,12.39
2022-09-22T02:27:53.519Z,12.41
2022-09-22T02:30:22.156Z,12.41
2022-09-22T02:32:51.307Z,12.45
2022-09-22T02:35:18.709Z,12.46
2022-09-22T02:37:51.136Z,12.43
2022-09-22T02:40:32.691Z,12.45
2022-09-22T02:43:09.808Z,12.39
2022-09-22T02:45:45.559Z,12.48
2022-09-22T02:48:25.098Z,12.45
2022-09-22T02:50:54.193Z,12.40
2022-09-22T02:53:21.485Z,12.34
2022-09-22T02:55:49.258Z,12.22
2022-09-22T02:58:17.280Z,12.29
2022-09-22T03:00:45.375Z,12.35
2022-09-22T03:03:13.074Z,12.35
2022-09-22T03:05:40.655Z,12.33
2022-09-22T03:08:08.131Z,12.38
2022-09-22T03:10:35.446Z,12.30
2022-09-22T03:13:16.065Z,12.29
2022-09-22T03:15:46.635Z,12.31
2022-09-22T03:18:14.671Z,12.28
2022-09-22T03:20:41.959Z,12.21
2022-09-22T03:23:09.491Z,12.19
2022-09-22T03:25:37.048Z,12.09
2022-09-22T03:28:04.412Z,12.08
2022-09-22T03:30:31.797Z,12.06
2022-09-22T03:32:59.416Z,12.03
2022-09-22T03:35:26.706Z,12.04
2022-09-22T03:37:53.997Z,11.98
2022-09-22T03:40:22.600Z,12.06
2022-09-22T03:42:49.951Z,12.00
2022-09-22T03:45:17.306Z,11.97
2022-09-22T03:47:44.881Z,11.99
2022-09-22T03:50:13.615Z,12.01
2022-09-22T03:52:43.015Z,11.98
2022-09-22T03:55:11.136Z,12.01
2022-09-22T03:57:39.138Z,12.03
2022-09-22T04:00:07.554Z,11.94
2022-09-22T04:02:39.285Z,11.89
2022-09-22T04:05:07.404Z,11.93
2022-09-22T04:07:35.247Z,12.00
2022-09-22T04:10:03.135Z,11.92
2022-09-22T04:12:30.690Z,12.03
2022-09-22T04:14:58.017Z,11.93
2022-09-22T04:17:25.318Z,12.04
2022-09-22T04:19:53.930Z,11.83
2022-09-22T04:22:21.224Z,11.77
2022-09-22T04:24:48.554Z,11.76
2022-09-22T04:27:19.898Z,11.82
2022-09-22T04:29:47.840Z,11.88
2022-09-22T04:32:15.911Z,11.80
2022-09-22T04:34:43.728Z,11.89
2022-09-22T04:37:11.748Z,11.84
2022-09-22T04:39:39.406Z,11.77
2022-09-22T04:42:08.955Z,11.82
2022-09-22T04:44:36.654Z,11.76
2022-09-22T04:47:04.651Z,11.77
2022-09-22T04:49:32.221Z,11.83
2022-09-22T04:51:59.528Z,11.84
2022-09-22T04:54:26.854Z,11.86
2022-09-22T04:56:54.414Z,11.87
2022-09-22T04:59:21.799Z,11.92
2022-09-22T05:01:49.202Z,11.94
2022-09-22T05:04:18.090Z,11.92
2022-09-22T05:06:45.392Z,11.93
2022-09-22T05:09:12.977Z,11.92
2022-09-22T05:11:40.555Z,11.95
2022-09-22T05:14:07.889Z,12.02
2022-09-22T05:16:35.499Z,12.08
2022-09-22T05:19:03.251Z,12.00
2022-09-22T05:21:30.543Z,12.09
2022-09-22T05:23:58.212Z,12.12
2022-09-22T05:26:25.823Z,12.02
2022-09-22T05:28:53.403Z,12.14
2022-09-22T05:31:20.900Z,12.25
2022-09-22T05:33:48.565Z,12.30
2022-09-22T05:36:16.471Z,12.36
2022-09-22T05:38:43.766Z,12.45
2022-09-22T05:41:11.393Z,12.70
2022-09-22T05:43:38.713Z,12.90
2022-09-22T05:46:06.105Z,13.11
2022-09-22T05:48:33.680Z,13.24
2022-09-22T05:51:01.262Z,13.49
2022-09-22T05:53:28.550Z,13.54
2022-09-22T05:56:00.074Z,13.76
2022-09-22T05:58:47.869Z,13.90
2022-09-22T06:01:15.482Z,14.04
2022-09-22T06:03:43.187Z,14.31
2022-09-22T06:06:10.530Z,14.40
2022-09-22T06:08:37.970Z,14.48
2022-09-22T06:11:05.770Z,14.76
2022-09-22T06:13:33.065Z,14.85
2022-09-22T06:16:04.240Z,15.06
2022-09-22T06:18:31.852Z,15.09
2022-09-22T06:20:59.814Z,15.43
2022-09-22T06:23:27.119Z,15.43
2022-09-22T06:25:58.875Z,15.71
2022-09-22T06:28:26.299Z,15.88
2022-09-22T06:30:53.592Z,15.83
2022-09-22T06:33:23.834Z,15.87
2022-09-22T06:35:51.125Z,15.90
2022-09-22T06:38:18.489Z,16.13
2022-09-22T06:40:46.364Z,16.19
2022-09-22T06:43:20.334Z,16.33
2022-09-22T06:45:49.006Z,16.50
2022-09-22T06:48:16.962Z,16.46
2022-09-22T06:50:48.849Z,16.70
2022-09-22T06:53:17.447Z,16.70
2022-09-22T06:55:44.939Z,16.86
2022-09-22T06:58:13.596Z,16.89
2022-09-22T07:00:43.388Z,16.87
2022-09-22T07:03:22.416Z,16.65
2022-09-22T07:06:01.507Z,16.82
2022-09-22T07:08:31.354Z,16.89
2022-09-22T07:11:04.019Z,16.88
2022-09-22T07:13:32.213Z,16.89
2022-09-22T07:16:11.461Z,17.06
2022-09-22T07:18:43.828Z,16.97
2022-09-22T07:21:26.332Z,16.98
2022-09-22T07:23:55.392Z,17.26
2022-09-22T07:26:32.682Z,16.98
2022-09-22T07:29:13.256Z,16.89
2022-09-22T07:31:41.820Z,17.21
2022-09-22T07:34:09.372Z,17.34
2022-09-22T07:36:39.971Z,17.42
2022-09-22T07:39:10.931Z,17.15
2022-09-22T07:41:44.248Z,17.36
2022-09-22T07:44:32.330Z,17.43
2022-09-22T07:47:00.684Z,17.18
2022-09-22T07:49:28.473Z,17.18
2022-09-22T07:51:57.202Z,17.03
2022-09-22T07:54:25.834Z,17.32
2022-09-22T07:56:58.050Z,17.03
2022-09-22T07:59:45.651Z,17.06
2022-09-22T08:02:14.806Z,17.38
2022-09-22T08:04:42.455Z,17.44
2022-09-22T08:07:09.741Z,17.46
2022-09-22T08:09:37.022Z,17.57
2022-09-22T08:12:04.600Z,17.49
2022-09-22T08:14:32.099Z,17.61
2022-09-22T08:16:59.382Z,17.63
2022-09-22T08:19:27.084Z,17.78
2022-09-22T08:21:54.672Z,17.66
2022-09-22T08:24:23.117Z,17.64
2022-09-22T08:26:52.886Z,17.65
2022-09-22T08:29:20.986Z,17.59
2022-09-22T08:31:49.262Z,17.61
2022-09-22T08:34:17.837Z,18.07
2022-09-22T08:36:48.808Z,18.12
2022-09-22T08:39:17.883Z,18.23
2022-09-22T08:41:47.872Z,18.05
2022-09-22T08:44:41.023Z,18.04
2022-09-22T08:47:16.776Z,18.22
2022-09-22T08:50:05.615Z,18.50
2022-09-22T08:52:35.585Z,18.69
2022-09-22T08:55:03.326Z,18.75
2022-09-22T08:57:45.898Z,19.03
2022-09-22T09:00:15.454Z,18.96
2022-09-22T09:03:09.825Z,18.82
2022-09-22T09:05:48.258Z,19.08
2022-09-22T09:08:15.410Z,19.16
2022-09-22T09:10:57.263Z,19.37
2022-09-22T09:14:03.349Z,19.34
2022-09-22T09:16:53.941Z,19.75
2022-09-22T09:19:40.428Z,19.54
2022-09-22T09:22:25.580Z,19.53
2022-09-22T09:27:58.867Z,19.96
2022-09-22T09:30:26.416Z,19.76
2022-09-22T09:33:00.519Z,19.93
2022-09-22T09:35:45.232Z,20.05
2022-09-22T09:38:15.159Z,20.18
2022-09-22T09:40:46.085Z,20.27
2022-09-22T09:43:13.643Z,20.10
2022-09-22T09:45:56.075Z,20.17
2022-09-22T09:48:40.811Z,20.16
2022-09-22T09:51:12.592Z,19.82
2022-09-22T09:53:44.663Z,19.91
2022-09-22T09:56:23.935Z,19.94
2022-09-22T09:59:15.468Z,20.12
2022-09-22T10:01:45.242Z,20.11
2022-09-22T10:04:31.059Z,20.15
2022-09-22T10:07:16.630Z,19.89
2022-09-22T10:09:44.785Z,19.77
2022-09-22T10:12:24.262Z,19.77
2022-09-22T10:14:54.193Z,19.81
2022-09-22T10:17:24.599Z,19.81
2022-09-22T10:19:52.155Z,19.47
2022-09-22T10:22:28.711Z,19.40
2022-09-22T10:25:01.303Z,19.49
2022-09-22T10:27:31.591Z,19.34
2022-09-22T10:30:11.387Z,19.45
2022-09-22T10:32:39.664Z,19.24
2022-09-22T10:35:28.660Z,19.33
2022-09-22T10:38:02.908Z,19.45
2022-09-22T10:40:31.397Z,19.80
2022-09-22T10:42:59.520Z,19.90
2022-09-22T10:46:17.115Z,20.13
2022-09-22T10:48:49.289Z,20.46
2022-09-22T10:51:33.062Z,20.74
2022-09-22T10:54:41.821Z,20.81
2022-09-22T10:57:34.426Z,20.70
2022-09-22T11:00:14.135Z,20.63
2022-09-22T11:03:19.203Z,20.80
2022-09-22T11:06:42.876Z,20.91
2022-09-22T11:09:50.347Z,20.95
2022-09-22T11:12:29.943Z,21.12
2022-09-22T11:15:19.101Z,21.20
2022-09-22T11:17:54.319Z,21.11
2022-09-22T11:20:39.843Z,20.74
2022-09-22T11:23:57.048Z,20.43
2022-09-22T11:26:43.028Z,20.51
2022-09-22T11:29:28.547Z,20.52
2022-09-22T11:32:04.115Z,20.44
2022-09-22T11:34:56.348Z,20.49
2022-09-22T11:37:32.860Z,20.74
2022-09-22T11:40:20.898Z,20.81
2022-09-22T11:43:03.885Z,21.10
2022-09-22T11:45:58.869Z,21.39
2022-09-22T11:48:44.764Z,21.51
2022-09-22T11:51:27.542Z,21.57
2022-09-22T11:53:58.312Z,21.57
2022-09-22T11:56:33.319Z,21.36
2022-09-22T11:59:06.495Z,21.35
2022-09-22T12:01:38.186Z,20.89
2022-09-22T12:04:35.433Z,21.03
2022-09-22T12:07:03.289Z,20.87
2022-09-22T12:09:37.306Z,20.75
2022-09-22T12:12:06.267Z,20.79
2022-09-22T12:14:35.448Z,20.64
2022-09-22T12:17:11.656Z,20.76
2022-09-22T12:20:05.781Z,20.72
2022-09-22T12:22:49.307Z,20.68
2022-09-22T12:25:53.980Z,20.59
2022-09-22T12:28:25.937Z,20.47
2022-09-22T12:31:06.778Z,20.39
2022-09-22T12:33:54.311Z,20.34
2022-09-22T12:36:38.943Z,20.32
2022-09-22T12:39:31.040Z,20.33
2022-09-22T12:42:03.909Z,20.13
2022-09-22T12:44:46.279Z,20.26
2022-09-22T12:47:25.296Z,20.12
2022-09-22T12:50:00.040Z,20.03
2022-09-22T12:52:47.941Z,19.99
2022-09-22T12:55:28.549Z,19.87
2022-09-22T12:58:03.387Z,20.01
2022-09-22T13:00:40.684Z,19.97
2022-09-22T13:03:26.395Z,20.02
2022-09-22T13:06:23.049Z,19.94
2022-09-22T13:08:53.676Z,19.78
2022-09-22T13:11:59.608Z,19.74
2022-09-22T13:15:04.834Z,19.90
2022-09-22T13:17:49.385Z,19.69
2022-09-22T13:20:32.898Z,19.50
2022-09-22T13:23:12.033Z,19.55
2022-09-22T13:25:41.033Z,19.62
2022-09-22T13:28:08.194Z,19.56
2022-09-22T13:30:36.402Z,19.42
2022-09-22T13:33:04.081Z,19.53
2022-09-22T13:35:37.530Z,19.39
2022-09-22T13:38:05.382Z,19.48
2022-09-22T13:40:34.799Z,19.49
2022-09-22T13:43:06.654Z,19.40
2022-09-22T13:45:35.407Z,19.52
2022-09-22T13:48:08.779Z,19.59
2022-09-22T13:51:01.467Z,19.49
2022-09-22T13:53:28.637Z,19.67
2022-09-22T13:55:57.712Z,19.62
2022-09-22T13:58:35.220Z,19.62
2022-09-22T14:01:19.839Z,19.62
2022-09-22T14:03:48.865Z,19.61
2022-09-22T14:06:18.654Z,19.46
2022-09-22T14:08:47.928Z,19.60
2022-09-22T14:11:18.257Z,19.67
2022-09-22T14:13:54.881Z,19.62
2022-09-22T14:16:48.353Z,19.82
2022-09-22T14:19:23.295Z,19.80
2022-09-22T14:21:58.211Z,19.55
2022-09-22T14:24:26.691Z,19.46
2022-09-22T14:27:01.615Z,19.54
2022-09-22T14:29:33.307Z,19.55
2022-09-22T14:32:18.213Z,19.40
2022-09-22T14:34:50.796Z,19.39
2022-09-22T14:37:27.910Z,19.28
2022-09-22T14:39:57.938Z,19.38
2022-09-22T14:42:29.157Z,19.28
2022-09-22T14:45:08.511Z,19.42
2022-09-22T14:47:40.388Z,19.46
2022-09-22T14:50:19.950Z,19.51
2022-09-22T14:53:01.727Z,19.45
2022-09-22T14:55:37.621Z,19.40
2022-09-22T14:58:17.463Z,19.44
2022-09-22T15:01:16.959Z,19.43
2022-09-22T15:03:54.356Z,19.42
2022-09-22T15:06:21.978Z,19.48
2022-09-22T15:08:52.085Z,19.51
2022-09-22T15:11:19.471Z,19.62
2022-09-22T15:13:50.785Z,19.57
2022-09-22T15:16:38.635Z,19.44
2022-09-22T15:19:10.937Z,19.44
2022-09-22T15:21:40.583Z,18.89
2022-09-22T15:24:10.862Z,18.24
2022-09-22T15:26:39.456Z,18.21
2022-09-22T15:29:06.785Z,18.11
2022-09-22T15:31:36.863Z,18.02
2022-09-22T15:34:04.455Z,18.03
2022-09-22T15:36:32.891Z,17.91
2022-09-22T15:39:06.808Z,17.71
2022-09-22T15:41:34.861Z,17.80
2022-09-22T15:44:03.067Z,17.81
2022-09-22T15:46:36.270Z,17.90
2022-09-22T15:49:12.327Z,17.82
2022-09-22T15:51:39.604Z,17.74
2022-09-22T15:54:15.103Z,17.73
2022-09-22T15:56:43.302Z,17.66
2022-09-22T15:59:16.909Z,17.71
2022-09-22T16:02:10.288Z,17.52
2022-09-22T16:04:37.908Z,17.42
2022-09-22T16:07:08.338Z,17.48
2022-09-22T16:09:35.722Z,17.59
2022-09-22T16:12:03.332Z,17.60
2022-09-22T16:14:30.624Z,17.53
2022-09-22T16:16:58.183Z,17.56
2022-09-22T16:19:37.782Z,17.46
2022-09-22T16:22:12.388Z,17.30
2022-09-22T16:24:39.968Z,17.34
2022-09-22T16:27:07.416Z,17.36
2022-09-22T16:29:37.324Z,17.27
2022-09-22T16:32:04.908Z,17.15
2022-09-22T16:34:34.557Z,17.11
2022-09-22T16:37:02.288Z,17.06
2022-09-22T16:39:29.865Z,17.00
2022-09-22T16:41:57.216Z,16.99
2022-09-22T16:44:24.517Z,16.91
2022-09-22T16:46:52.103Z,16.74
2022-09-22T16:49:20.912Z,16.62
2022-09-22T16:51:54.135Z,16.64
2022-09-22T16:54:21.734Z,16.55
2022-09-22T16:56:50.566Z,16.49
2022-09-22T16:59:19.715Z,16.39
2022-09-22T17:01:47.415Z,16.34
2022-09-22T17:04:16.665Z,16.39
2022-09-22T17:06:44.468Z,16.39
2022-09-22T17:09:12.992Z,16.34
2022-09-22T17:11:42.655Z,16.15
2022-09-22T17:14:17.739Z,16.21
2022-09-22T17:16:51.821Z,16.08
2022-09-22T17:19:21.856Z,16.00
2022-09-22T17:21:51.901Z,15.97
2022-09-22T17:24:19.748Z,15.83
2022-09-22T17:26:49.934Z,15.78
2022-09-22T17:29:25.487Z,15.64
2022-09-22T17:31:57.711Z,15.56
2022-09-22T17:34:29.634Z,15.57
2022-09-22T17:36:57.389Z,15.43
2022-09-22T17:39:26.732Z,15.37
2022-09-22T17:41:54.992Z,15.35
2022-09-22T17:44:22.755Z,15.17
2022-09-22T17:47:10.896Z,15.18
2022-09-22T17:49:58.444Z,15.15
2022-09-22T17:52:29.656Z,15.08
2022-09-22T17:55:07.383Z,14.91
2022-09-22T17:57:36.134Z,14.83
2022-09-22T18:00:06.316Z,14.77
2022-09-22T18:02:37.392Z,14.82
2022-09-22T18:05:12.718Z,14.81
2022-09-22T18:07:40.812Z,14.82
2022-09-22T18:10:10.195Z,14.80
2022-09-22T18:12:37.926Z,14.71
2022-09-22T18:15:06.234Z,14.63
2022-09-22T18:17:41.931Z,14.54
2022-09-22T18:20:11.757Z,14.44
2022-09-22T18:22:40.016Z,14.49
2022-09-22T18:25:09.012Z,14.55
2022-09-22T18:27:37.260Z,14.41
2022-09-22T18:30:06.178Z,14.26
2022-09-22T18:32:34.783Z,14.31
2022-09-22T18:35:02.539Z,14.25
2022-09-22T18:37:30.120Z,14.14
2022-09-22T18:39:57.513Z,14.11
2022-09-22T18:42:25.263Z,14.09
2022-09-22T18:45:25.132Z,14.10
2022-09-22T18:47:52.709Z,14.12
2022-09-22T18:50:20.396Z,14.11
2022-09-22T18:52:47.780Z,14.09
2022-09-22T18:55:18.218Z,14.10
2022-09-22T18:57:47.750Z,14.06
2022-09-22T19:00:15.968Z,14.16
2022-09-22T19:02:43.560Z,14.18
2022-09-22T19:05:10.887Z,14.14
2022-09-22T19:07:43.338Z,14.18
2022-09-22T19:10:13.357Z,14.15
2022-09-22T19:12:41.018Z,14.20
2022-09-22T19:15:16.554Z,14.21
2022-09-22T19:17:46.395Z,14.21
2022-09-22T19:20:20.836Z,14.08
2022-09-22T19:22:50.362Z,14.17
2022-09-22T19:25:21.452Z,14.20
2022-09-22T19:27:50.698Z,14.06
2022-09-22T19:30:22.376Z,13.98
2022-09-22T19:32:51.426Z,13.93
2022-09-22T19:35:19.512Z,13.73
2022-09-22T19:37:47.193Z,13.83
2022-09-22T19:40:18.534Z,13.79
2022-09-22T19:42:47.193Z,13.98
2022-09-22T19:45:15.487Z,13.93
2022-09-22T19:47:42.806Z,14.03
2022-09-22T19:50:13.346Z,13.96
2022-09-22T19:52:40.946Z,13.97
2022-09-22T19:55:11.365Z,13.92
2022-09-22T19:57:41.539Z,13.92
2022-09-22T20:00:12.564Z,13.97
2022-09-22T20:02:40.176Z,14.01
2022-09-22T20:05:17.351Z,13.89
2022-09-22T20:07:44.919Z,13.93
2022-09-22T20:10:13.218Z,13.95
2022-09-22T20:12:40.537Z,13.84
2022-09-22T20:15:08.495Z,13.79
2022-09-22T20:17:35.775Z,13.86
2022-09-22T20:20:03.266Z,13.87
2022-09-22T20:22:31.338Z,13.83
2022-09-22T20:25:01.389Z,13.69
2022-09-22T20:27:33.648Z,13.71
2022-09-22T20:30:01.650Z,13.71
2022-09-22T20:32:34.637Z,13.65
2022-09-22T20:35:02.230Z,13.67
2022-09-22T20:37:32.149Z,13.62
2022-09-22T20:39:59.458Z,13.64
2022-09-22T20:42:27.011Z,13.61
2022-09-22T20:44:55.029Z,13.61
2022-09-22T20:47:25.364Z,13.63
2022-09-22T20:49:53.114Z,13.61
2022-09-22T20:52:21.006Z,13.68
2022-09-22T20:54:48.477Z,13.67
2022-09-22T20:57:16.951Z,13.52
2022-09-22T20:59:45.795Z,13.50
2022-09-22T21:02:14.529Z,13.49
2022-09-22T21:04:42.301Z,13.30
2022-09-22T21:07:11.318Z,13.36
2022-09-22T21:09:57.236Z,13.38
2022-09-22T21:12:30.693Z,13.29
2022-09-22T21:14:58.738Z,13.20
2022-09-22T21:17:27.754Z,13.08
2022-09-22T21:19:57.759Z,13.11
2022-09-22T21:22:28.023Z,13.16
2022-09-22T21:25:03.151Z,13.16
2022-09-22T21:27:30.431Z,13.10
2022-09-22T21:29:58.004Z,13.04
2022-09-22T21:32:25.369Z,13.11
2022-09-22T21:34:52.667Z,13.01
2022-09-22T21:37:20.997Z,12.95
2022-09-22T21:39:48.284Z,12.96
2022-09-22T21:42:15.847Z,12.88
2022-09-22T21:44:43.411Z,12.87
2022-09-22T21:47:11.427Z,12.80
2022-09-22T21:49:38.716Z,12.76
2022-09-22T21:52:06.299Z,12.72
2022-09-22T21:54:33.826Z,12.69
2022-09-22T21:57:01.373Z,12.71
2022-09-22T21:59:29.703Z,12.51
2022-09-22T22:01:57.344Z,12.56
2022-09-22T22:04:25.135Z,12.51
2022-09-22T22:06:52.479Z,12.38
2022-09-22T22:09:21.957Z,12.36
2022-09-22T22:11:53.784Z,12.42
2022-09-22T22:14:22.434Z,12.40
2022-09-22T22:16:52.007Z,12.33
2022-09-22T22:19:21.192Z,12.42
2022-09-22T22:21:50.209Z,12.47
2022-09-22T22:24:30.455Z,12.34
2022-09-22T22:27:01.149Z,12.26
2022-09-22T22:29:34.648Z,12.22
2022-09-22T22:32:04.955Z,12.35
2022-09-22T22:34:32.592Z,12.45
2022-09-22T22:37:00.392Z,12.23
2022-09-22T22:39:28.329Z,12.10
2022-09-22T22:41:55.994Z,12.10
2022-09-22T22:44:23.328Z,11.93
2022-09-22T22:46:50.840Z,12.13
2022-09-22T22:49:18.426Z,12.13
2022-09-22T22:51:45.854Z,11.98
2022-09-22T22:54:14.484Z,12.06
2022-09-22T22:56:43.704Z,12.13
2022-09-22T22:59:11.748Z,12.05
2022-09-22T23:01:40.566Z,11.90
2022-09-22T23:04:10.279Z,11.78
2022-09-22T23:06:39.698Z,11.82
2022-09-22T23:09:08.420Z,11.88
2022-09-22T23:11:37.956Z,11.74
2022-09-22T23:14:08.404Z,11.71
2022-09-22T23:16:41.008Z,11.58
2022-09-22T23:19:08.913Z,11.69
2022-09-22T23:21:36.680Z,11.58
2022-09-22T23:24:05.495Z,11.63
2022-09-22T23:26:54.332Z,11.57
2022-09-22T23:29:22.342Z,11.49
2022-09-22T23:31:49.718Z,11.46
2022-09-22T23:34:17.048Z,11.36
2022-09-22T23:36:45.299Z,11.45
2022-09-22T23:39:12.607Z,11.36
2022-09-22T23:41:39.939Z,11.29
2022-09-22T23:44:07.577Z,11.39
2022-09-22T23:46:35.044Z,11.24
2022-09-22T23:49:02.422Z,11.09
2022-09-22T23:51:30.671Z,11.25
2022-09-22T23:53:58.502Z,11.21
2022-09-22T23:56:26.039Z,11.20
2022-09-22T23:58:53.822Z,11.19
